Etusivu
METAR-TAF:

METAR-TAF

Lentoasemat :

Bainbridge, Georgia, Yhdysvallat

Leveyspiiri: 30-58N, Pituuspiiri: 084-38W, korkeus merenpinnasta: 43 m

Tämänhetkinen sää

Tämä raportti tehtiin 21 minuuttia sitten, kello 11.35 UTC
Tuuli 5 kn etelästä/kaakosta
Lämpötila 19°C
Kosteus 100%
Ilmanpaine 1021 hPa
Näkyvyys: 2.4 km
Pilvistä 200 ft:n korkeudessa
utua

METAR: KBGE 281135Z AUTO 16005KT 1 1/2SM BR OVC002 19/19 A3016 RMK AO2 T01890188

Aika: 06:56 (11:56 UTC)


TAF: puuttuu

Säähavainnot ja -ennusteet yli 4000 lentoasemalta (METAR- ja TAF-raportit).

Käytössä olevat sääasemat on merkitty karttaan keltaisilla ja punaisilla pisteillä.

Aseta hiiri pisteen päälle nähdäksesi sääaseman nimen.

Klikkaa sitten nähdäksesi säähavainnot ja -ennusteet.

Kartan vaihtaminen: klikkaa mustalla rastilla varustettuja vihreitä pisteitä, niin voit zoomata sisään; viivalla varustettua vihreää pistettä, niin voit zoomata ulos tai vihreitä nuolia, niin pääset viereisille kartoille.


METAR-TAF: